sensor_id;sensor_type;location;lat;lon;timestamp;P1;durP1;ratioP1;P2;durP2;ratioP2
35223;SDS011;21367;51.930;8.112;2023-02-15T00:01:45;31.63;;;14.13;;
35223;SDS011;21367;51.930;8.112;2023-02-15T00:06:49;35.78;;;14.93;;
35223;SDS011;21367;51.930;8.112;2023-02-15T00:11:53;38.10;;;14.75;;
35223;SDS011;21367;51.930;8.112;2023-02-15T00:17:00;33.80;;;16.35;;
35223;SDS011;21367;51.930;8.112;2023-02-15T00:22:04;37.83;;;16.08;;
35223;SDS011;21367;51.930;8.112;2023-02-15T00:27:09;50.63;;;18.00;;
35223;SDS011;21367;51.930;8.112;2023-02-15T00:32:16;47.72;;;17.70;;
35223;SDS011;21367;51.930;8.112;2023-02-15T00:37:20;41.97;;;16.92;;
35223;SDS011;21367;51.930;8.112;2023-02-15T00:42:24;43.08;;;17.58;;
35223;SDS011;21367;51.930;8.112;2023-02-15T00:47:31;42.90;;;17.35;;
35223;SDS011;21367;51.930;8.112;2023-02-15T00:52:35;43.90;;;18.27;;
35223;SDS011;21367;51.930;8.112;2023-02-15T00:57:39;49.38;;;18.10;;
35223;SDS011;21367;51.930;8.112;2023-02-15T01:02:45;47.35;;;18.17;;
35223;SDS011;21367;51.930;8.112;2023-02-15T01:12:52;45.83;;;16.95;;
35223;SDS011;21367;51.930;8.112;2023-02-15T01:17:59;42.67;;;17.77;;
35223;SDS011;21367;51.930;8.112;2023-02-15T01:28:06;40.05;;;15.52;;
35223;SDS011;21367;51.930;8.112;2023-02-15T01:33:12;35.30;;;15.20;;
35223;SDS011;21367;51.930;8.112;2023-02-15T01:38:18;37.20;;;15.63;;
35223;SDS011;21367;51.930;8.112;2023-02-15T01:43:21;36.47;;;16.13;;
35223;SDS011;21367;51.930;8.112;2023-02-15T01:48:46;35.00;;;15.80;;
35223;SDS011;21367;51.930;8.112;2023-02-15T01:53:53;32.28;;;14.80;;
35223;SDS011;21367;51.930;8.112;2023-02-15T01:59:03;34.22;;;15.35;;
35223;SDS011;21367;51.930;8.112;2023-02-15T02:04:15;30.30;;;15.13;;
35223;SDS011;21367;51.930;8.112;2023-02-15T02:09:23;34.45;;;14.73;;
35223;SDS011;21367;51.930;8.112;2023-02-15T02:14:27;39.85;;;15.85;;
35223;SDS011;21367;51.930;8.112;2023-02-15T02:19:40;37.08;;;15.55;;
35223;SDS011;21367;51.930;8.112;2023-02-15T02:25:08;30.88;;;14.60;;
35223;SDS011;21367;51.930;8.112;2023-02-15T02:30:40;35.65;;;15.18;;
35223;SDS011;21367;51.930;8.112;2023-02-15T02:36:00;31.10;;;14.57;;
35223;SDS011;21367;51.930;8.112;2023-02-15T02:41:17;33.20;;;13.82;;
35223;SDS011;21367;51.930;8.112;2023-02-15T02:46:30;32.67;;;13.55;;
35223;SDS011;21367;51.930;8.112;2023-02-15T02:51:41;31.35;;;13.90;;
35223;SDS011;21367;51.930;8.112;2023-02-15T03:01:50;34.20;;;12.70;;
35223;SDS011;21367;51.930;8.112;2023-02-15T03:07:01;31.75;;;14.23;;
35223;SDS011;21367;51.930;8.112;2023-02-15T03:12:08;32.40;;;13.52;;
35223;SDS011;21367;51.930;8.112;2023-02-15T03:17:17;35.97;;;13.68;;
35223;SDS011;21367;51.930;8.112;2023-02-15T03:27:33;32.13;;;13.88;;
35223;SDS011;21367;51.930;8.112;2023-02-15T03:32:42;31.40;;;13.25;;
35223;SDS011;21367;51.930;8.112;2023-02-15T03:37:51;34.63;;;14.10;;
35223;SDS011;21367;51.930;8.112;2023-02-15T03:43:00;31.35;;;12.45;;
35223;SDS011;21367;51.930;8.112;2023-02-15T03:48:12;30.75;;;13.07;;
35223;SDS011;21367;51.930;8.112;2023-02-15T03:53:19;27.55;;;12.93;;
35223;SDS011;21367;51.930;8.112;2023-02-15T03:58:25;34.20;;;13.18;;
35223;SDS011;21367;51.930;8.112;2023-02-15T04:03:42;28.98;;;12.13;;
35223;SDS011;21367;51.930;8.112;2023-02-15T04:08:51;26.70;;;12.30;;
35223;SDS011;21367;51.930;8.112;2023-02-15T04:14:07;32.30;;;13.18;;
35223;SDS011;21367;51.930;8.112;2023-02-15T04:19:23;34.45;;;13.73;;
35223;SDS011;21367;51.930;8.112;2023-02-15T04:24:42;37.22;;;13.65;;
35223;SDS011;21367;51.930;8.112;2023-02-15T04:29:58;30.35;;;12.95;;
35223;SDS011;21367;51.930;8.112;2023-02-15T04:35:01;28.58;;;13.00;;
35223;SDS011;21367;51.930;8.112;2023-02-15T04:40:09;28.38;;;13.05;;
35223;SDS011;21367;51.930;8.112;2023-02-15T04:45:14;26.48;;;12.43;;
35223;SDS011;21367;51.930;8.112;2023-02-15T04:50:18;30.95;;;12.85;;
35223;SDS011;21367;51.930;8.112;2023-02-15T04:55:25;28.45;;;12.02;;
35223;SDS011;21367;51.930;8.112;2023-02-15T05:00:29;31.30;;;12.60;;
35223;SDS011;21367;51.930;8.112;2023-02-15T05:05:34;29.33;;;12.80;;
35223;SDS011;21367;51.930;8.112;2023-02-15T05:10:40;31.45;;;13.48;;
35223;SDS011;21367;51.930;8.112;2023-02-15T05:15:46;30.00;;;13.15;;
35223;SDS011;21367;51.930;8.112;2023-02-15T05:20:50;31.67;;;13.20;;
35223;SDS011;21367;51.930;8.112;2023-02-15T05:25:57;34.28;;;13.68;;
35223;SDS011;21367;51.930;8.112;2023-02-15T05:31:13;28.50;;;13.10;;
35223;SDS011;21367;51.930;8.112;2023-02-15T05:36:18;34.42;;;13.77;;
35223;SDS011;21367;51.930;8.112;2023-02-15T05:41:24;30.60;;;13.07;;
35223;SDS011;21367;51.930;8.112;2023-02-15T05:46:28;32.97;;;11.95;;
35223;SDS011;21367;51.930;8.112;2023-02-15T05:51:32;31.75;;;13.35;;
35223;SDS011;21367;51.930;8.112;2023-02-15T05:56:38;35.70;;;12.52;;
35223;SDS011;21367;51.930;8.112;2023-02-15T06:01:42;32.35;;;13.05;;
35223;SDS011;21367;51.930;8.112;2023-02-15T06:06:45;28.77;;;13.23;;
35223;SDS011;21367;51.930;8.112;2023-02-15T06:11:51;31.40;;;13.10;;
35223;SDS011;21367;51.930;8.112;2023-02-15T06:16:55;34.78;;;13.85;;
35223;SDS011;21367;51.930;8.112;2023-02-15T06:21:59;35.78;;;14.05;;
35223;SDS011;21367;51.930;8.112;2023-02-15T06:27:05;33.60;;;13.55;;
35223;SDS011;21367;51.930;8.112;2023-02-15T06:37:13;29.42;;;13.05;;
35223;SDS011;21367;51.930;8.112;2023-02-15T06:42:20;30.77;;;12.65;;
35223;SDS011;21367;51.930;8.112;2023-02-15T06:47:27;38.60;;;13.43;;
35223;SDS011;21367;51.930;8.112;2023-02-15T06:52:32;30.45;;;13.63;;
35223;SDS011;21367;51.930;8.112;2023-02-15T06:57:38;34.75;;;15.10;;
35223;SDS011;21367;51.930;8.112;2023-02-15T07:07:46;40.83;;;15.35;;
35223;SDS011;21367;51.930;8.112;2023-02-15T07:12:57;35.92;;;13.85;;
35223;SDS011;21367;51.930;8.112;2023-02-15T07:18:02;32.58;;;13.82;;
35223;SDS011;21367;51.930;8.112;2023-02-15T07:23:07;31.42;;;14.00;;
35223;SDS011;21367;51.930;8.112;2023-02-15T07:28:13;32.67;;;13.70;;
35223;SDS011;21367;51.930;8.112;2023-02-15T07:33:17;31.42;;;14.00;;
35223;SDS011;21367;51.930;8.112;2023-02-15T07:38:29;29.60;;;13.52;;
35223;SDS011;21367;51.930;8.112;2023-02-15T07:43:38;33.67;;;13.82;;
35223;SDS011;21367;51.930;8.112;2023-02-15T07:48:43;33.28;;;13.00;;
35223;SDS011;21367;51.930;8.112;2023-02-15T07:53:47;32.63;;;14.27;;
35223;SDS011;21367;51.930;8.112;2023-02-15T07:58:54;35.05;;;15.68;;
35223;SDS011;21367;51.930;8.112;2023-02-15T08:04:01;33.90;;;15.30;;
35223;SDS011;21367;51.930;8.112;2023-02-15T08:09:06;39.95;;;15.82;;
35223;SDS011;21367;51.930;8.112;2023-02-15T08:14:15;50.28;;;17.73;;
35223;SDS011;21367;51.930;8.112;2023-02-15T08:19:21;37.78;;;15.18;;
35223;SDS011;21367;51.930;8.112;2023-02-15T08:24:26;48.37;;;16.87;;
35223;SDS011;21367;51.930;8.112;2023-02-15T08:29:34;50.27;;;17.00;;
35223;SDS011;21367;51.930;8.112;2023-02-15T08:34:40;48.72;;;17.95;;
35223;SDS011;21367;51.930;8.112;2023-02-15T08:39:44;44.35;;;16.98;;
35223;SDS011;21367;51.930;8.112;2023-02-15T08:44:51;46.78;;;17.20;;
35223;SDS011;21367;51.930;8.112;2023-02-15T08:54:58;38.90;;;16.00;;
35223;SDS011;21367;51.930;8.112;2023-02-15T09:00:06;34.22;;;14.75;;
35223;SDS011;21367;51.930;8.112;2023-02-15T09:05:10;33.15;;;15.85;;
35223;SDS011;21367;51.930;8.112;2023-02-15T09:10:14;39.45;;;15.45;;
35223;SDS011;21367;51.930;8.112;2023-02-15T09:15:21;36.10;;;15.85;;
35223;SDS011;21367;51.930;8.112;2023-02-15T09:25:29;36.08;;;14.82;;
35223;SDS011;21367;51.930;8.112;2023-02-15T09:30:35;39.67;;;15.20;;
35223;SDS011;21367;51.930;8.112;2023-02-15T09:35:39;36.58;;;14.68;;
35223;SDS011;21367;51.930;8.112;2023-02-15T09:40:44;33.67;;;14.38;;
35223;SDS011;21367;51.930;8.112;2023-02-15T09:46:08;40.10;;;15.77;;
35223;SDS011;21367;51.930;8.112;2023-02-15T09:51:35;31.88;;;14.88;;
35223;SDS011;21367;51.930;8.112;2023-02-15T09:56:51;41.17;;;16.30;;
35223;SDS011;21367;51.930;8.112;2023-02-15T10:02:05;39.80;;;15.80;;
35223;SDS011;21367;51.930;8.112;2023-02-15T10:07:28;29.88;;;14.18;;
35223;SDS011;21367;51.930;8.112;2023-02-15T10:12:47;36.53;;;15.80;;
35223;SDS011;21367;51.930;8.112;2023-02-15T10:18:06;35.13;;;14.93;;
35223;SDS011;21367;51.930;8.112;2023-02-15T10:23:30;33.63;;;15.50;;
35223;SDS011;21367;51.930;8.112;2023-02-15T10:28:46;34.63;;;16.58;;
35223;SDS011;21367;51.930;8.112;2023-02-15T10:39:21;37.38;;;16.40;;
35223;SDS011;21367;51.930;8.112;2023-02-15T10:44:35;34.60;;;15.05;;
35223;SDS011;21367;51.930;8.112;2023-02-15T10:49:58;38.45;;;15.85;;
35223;SDS011;21367;51.930;8.112;2023-02-15T10:55:16;36.63;;;15.82;;
35223;SDS011;21367;51.930;8.112;2023-02-15T11:00:27;35.10;;;14.63;;
35223;SDS011;21367;51.930;8.112;2023-02-15T11:05:45;36.45;;;16.33;;
35223;SDS011;21367;51.930;8.112;2023-02-15T11:10:56;37.22;;;16.48;;
35223;SDS011;21367;51.930;8.112;2023-02-15T11:16:03;37.15;;;15.70;;
35223;SDS011;21367;51.930;8.112;2023-02-15T11:21:12;35.30;;;15.13;;
35223;SDS011;21367;51.930;8.112;2023-02-15T11:26:21;38.15;;;15.95;;
35223;SDS011;21367;51.930;8.112;2023-02-15T11:31:42;38.60;;;17.42;;
35223;SDS011;21367;51.930;8.112;2023-02-15T11:36:51;38.40;;;16.35;;
35223;SDS011;21367;51.930;8.112;2023-02-15T11:41:59;49.72;;;17.85;;
35223;SDS011;21367;51.930;8.112;2023-02-15T11:47:08;35.88;;;16.35;;
35223;SDS011;21367;51.930;8.112;2023-02-15T11:52:17;39.72;;;18.15;;
35223;SDS011;21367;51.930;8.112;2023-02-15T11:57:23;39.85;;;16.67;;
35223;SDS011;21367;51.930;8.112;2023-02-15T12:02:29;47.15;;;17.35;;
35223;SDS011;21367;51.930;8.112;2023-02-15T12:07:40;38.13;;;17.52;;
35223;SDS011;21367;51.930;8.112;2023-02-15T12:12:48;39.25;;;16.70;;
35223;SDS011;21367;51.930;8.112;2023-02-15T12:18:17;46.03;;;18.02;;
35223;SDS011;21367;51.930;8.112;2023-02-15T12:23:26;40.60;;;16.55;;
35223;SDS011;21367;51.930;8.112;2023-02-15T12:28:31;37.80;;;17.58;;
35223;SDS011;21367;51.930;8.112;2023-02-15T12:33:38;48.58;;;19.00;;
35223;SDS011;21367;51.930;8.112;2023-02-15T12:44:21;40.67;;;17.77;;
35223;SDS011;21367;51.930;8.112;2023-02-15T12:49:29;43.40;;;19.20;;
35223;SDS011;21367;51.930;8.112;2023-02-15T12:54:37;41.67;;;18.60;;
35223;SDS011;21367;51.930;8.112;2023-02-15T12:59:47;46.90;;;18.13;;
35223;SDS011;21367;51.930;8.112;2023-02-15T13:04:56;45.50;;;18.65;;
35223;SDS011;21367;51.930;8.112;2023-02-15T13:10:04;45.75;;;18.90;;
35223;SDS011;21367;51.930;8.112;2023-02-15T13:15:25;43.78;;;18.13;;
35223;SDS011;21367;51.930;8.112;2023-02-15T13:20:33;52.08;;;18.35;;
35223;SDS011;21367;51.930;8.112;2023-02-15T13:25:45;46.08;;;18.55;;
35223;SDS011;21367;51.930;8.112;2023-02-15T13:30:51;43.35;;;19.33;;
35223;SDS011;21367;51.930;8.112;2023-02-15T13:35:57;47.35;;;18.80;;
35223;SDS011;21367;51.930;8.112;2023-02-15T13:41:11;46.63;;;20.30;;
35223;SDS011;21367;51.930;8.112;2023-02-15T13:46:22;43.92;;;19.48;;
35223;SDS011;21367;51.930;8.112;2023-02-15T13:51:38;46.95;;;19.40;;
35223;SDS011;21367;51.930;8.112;2023-02-15T13:56:53;48.30;;;19.60;;
35223;SDS011;21367;51.930;8.112;2023-02-15T14:02:15;46.63;;;18.10;;
35223;SDS011;21367;51.930;8.112;2023-02-15T14:07:49;42.95;;;19.05;;
35223;SDS011;21367;51.930;8.112;2023-02-15T14:13:10;46.63;;;19.08;;
35223;SDS011;21367;51.930;8.112;2023-02-15T14:18:35;47.65;;;19.40;;
35223;SDS011;21367;51.930;8.112;2023-02-15T14:23:50;47.28;;;20.05;;
35223;SDS011;21367;51.930;8.112;2023-02-15T14:29:05;39.47;;;17.65;;
35223;SDS011;21367;51.930;8.112;2023-02-15T14:34:19;52.25;;;20.83;;
35223;SDS011;21367;51.930;8.112;2023-02-15T14:39:28;53.55;;;20.13;;
35223;SDS011;21367;51.930;8.112;2023-02-15T14:44:56;46.72;;;18.67;;
35223;SDS011;21367;51.930;8.112;2023-02-15T14:55:37;50.58;;;19.27;;
35223;SDS011;21367;51.930;8.112;2023-02-15T15:00:43;48.67;;;19.33;;
35223;SDS011;21367;51.930;8.112;2023-02-15T15:05:47;43.42;;;19.30;;
35223;SDS011;21367;51.930;8.112;2023-02-15T15:10:54;47.50;;;20.08;;
35223;SDS011;21367;51.930;8.112;2023-02-15T15:16:23;45.67;;;17.58;;
35223;SDS011;21367;51.930;8.112;2023-02-15T15:21:56;44.30;;;18.58;;
35223;SDS011;21367;51.930;8.112;2023-02-15T15:32:47;43.28;;;19.42;;
35223;SDS011;21367;51.930;8.112;2023-02-15T15:43:46;48.42;;;20.42;;
35223;SDS011;21367;51.930;8.112;2023-02-15T15:49:09;54.42;;;19.40;;
35223;SDS011;21367;51.930;8.112;2023-02-15T15:54:16;43.45;;;19.60;;
35223;SDS011;21367;51.930;8.112;2023-02-15T15:59:23;45.65;;;19.65;;
35223;SDS011;21367;51.930;8.112;2023-02-15T16:04:32;48.13;;;19.23;;
35223;SDS011;21367;51.930;8.112;2023-02-15T16:09:38;51.92;;;18.98;;
35223;SDS011;21367;51.930;8.112;2023-02-15T16:14:41;48.80;;;19.70;;
35223;SDS011;21367;51.930;8.112;2023-02-15T16:19:52;49.22;;;20.02;;
35223;SDS011;21367;51.930;8.112;2023-02-15T16:25:13;55.60;;;20.95;;
35223;SDS011;21367;51.930;8.112;2023-02-15T16:30:29;58.05;;;21.60;;
35223;SDS011;21367;51.930;8.112;2023-02-15T16:35:38;56.70;;;21.17;;
35223;SDS011;21367;51.930;8.112;2023-02-15T16:40:46;55.08;;;21.92;;
35223;SDS011;21367;51.930;8.112;2023-02-15T16:45:59;63.08;;;23.95;;
35223;SDS011;21367;51.930;8.112;2023-02-15T16:51:10;53.42;;;22.67;;
35223;SDS011;21367;51.930;8.112;2023-02-15T16:56:24;66.80;;;23.02;;
35223;SDS011;21367;51.930;8.112;2023-02-15T17:01:31;58.05;;;22.70;;
35223;SDS011;21367;51.930;8.112;2023-02-15T17:06:39;65.07;;;23.17;;
35223;SDS011;21367;51.930;8.112;2023-02-15T17:11:43;63.88;;;22.15;;
35223;SDS011;21367;51.930;8.112;2023-02-15T17:16:49;57.42;;;21.70;;
35223;SDS011;21367;51.930;8.112;2023-02-15T17:22:01;57.25;;;21.25;;
35223;SDS011;21367;51.930;8.112;2023-02-15T17:27:11;54.80;;;21.50;;
35223;SDS011;21367;51.930;8.112;2023-02-15T17:32:19;57.45;;;20.48;;
35223;SDS011;21367;51.930;8.112;2023-02-15T17:42:49;61.22;;;22.00;;
35223;SDS011;21367;51.930;8.112;2023-02-15T17:47:53;65.07;;;22.00;;
35223;SDS011;21367;51.930;8.112;2023-02-15T17:53:03;61.80;;;22.40;;
35223;SDS011;21367;51.930;8.112;2023-02-15T17:58:09;63.83;;;25.23;;
35223;SDS011;21367;51.930;8.112;2023-02-15T18:03:14;62.22;;;26.42;;
35223;SDS011;21367;51.930;8.112;2023-02-15T18:08:34;73.97;;;26.88;;
35223;SDS011;21367;51.930;8.112;2023-02-15T18:13:50;74.75;;;28.83;;
35223;SDS011;21367;51.930;8.112;2023-02-15T18:18:55;70.63;;;29.80;;
35223;SDS011;21367;51.930;8.112;2023-02-15T18:24:14;77.23;;;30.47;;
35223;SDS011;21367;51.930;8.112;2023-02-15T18:37:00;86.70;;;33.03;;
35223;SDS011;21367;51.930;8.112;2023-02-15T19:13:07;92.85;;;36.92;;
35223;SDS011;21367;51.930;8.112;2023-02-15T19:19:15;90.28;;;35.38;;
35223;SDS011;21367;51.930;8.112;2023-02-15T19:36:05;71.35;;;23.08;;
35223;SDS011;21367;51.930;8.112;2023-02-15T19:41:41;60.50;;;23.55;;
35223;SDS011;21367;51.930;8.112;2023-02-15T19:47:26;67.05;;;25.15;;
35223;SDS011;21367;51.930;8.112;2023-02-15T19:53:29;65.65;;;23.48;;
35223;SDS011;21367;51.930;8.112;2023-02-15T20:04:06;69.28;;;26.73;;
35223;SDS011;21367;51.930;8.112;2023-02-15T20:09:24;83.30;;;27.75;;
35223;SDS011;21367;51.930;8.112;2023-02-15T20:14:43;69.40;;;26.27;;
35223;SDS011;21367;51.930;8.112;2023-02-15T20:19:50;76.38;;;26.63;;
35223;SDS011;21367;51.930;8.112;2023-02-15T20:37:48;89.70;;;34.90;;
35223;SDS011;21367;51.930;8.112;2023-02-15T20:43:19;93.07;;;36.40;;
35223;SDS011;21367;51.930;8.112;2023-02-15T20:48:31;90.18;;;37.78;;
35223;SDS011;21367;51.930;8.112;2023-02-15T20:53:41;89.65;;;36.78;;
35223;SDS011;21367;51.930;8.112;2023-02-15T20:58:45;86.03;;;37.70;;
35223;SDS011;21367;51.930;8.112;2023-02-15T21:03:54;88.93;;;35.05;;
35223;SDS011;21367;51.930;8.112;2023-02-15T21:09:00;85.80;;;34.78;;
35223;SDS011;21367;51.930;8.112;2023-02-15T21:14:08;87.57;;;35.45;;
35223;SDS011;21367;51.930;8.112;2023-02-15T21:19:22;79.65;;;30.08;;
35223;SDS011;21367;51.930;8.112;2023-02-15T21:25:08;71.10;;;30.25;;
35223;SDS011;21367;51.930;8.112;2023-02-15T21:30:35;66.43;;;29.55;;
35223;SDS011;21367;51.930;8.112;2023-02-15T21:36:08;78.63;;;29.20;;
35223;SDS011;21367;51.930;8.112;2023-02-15T21:41:49;80.93;;;30.48;;
35223;SDS011;21367;51.930;8.112;2023-02-15T21:47:07;70.03;;;29.00;;
35223;SDS011;21367;51.930;8.112;2023-02-15T21:52:35;66.68;;;25.52;;
35223;SDS011;21367;51.930;8.112;2023-02-15T21:57:39;61.63;;;25.60;;
35223;SDS011;21367;51.930;8.112;2023-02-15T22:02:43;63.42;;;26.92;;
35223;SDS011;21367;51.930;8.112;2023-02-15T22:07:52;69.55;;;26.33;;
35223;SDS011;21367;51.930;8.112;2023-02-15T22:12:56;61.58;;;25.23;;
35223;SDS011;21367;51.930;8.112;2023-02-15T22:23:10;57.58;;;22.25;;
35223;SDS011;21367;51.930;8.112;2023-02-15T22:28:14;56.90;;;22.95;;
35223;SDS011;21367;51.930;8.112;2023-02-15T22:33:23;60.28;;;22.50;;
35223;SDS011;21367;51.930;8.112;2023-02-15T22:38:31;58.58;;;22.00;;
35223;SDS011;21367;51.930;8.112;2023-02-15T22:43:36;51.40;;;20.17;;
35223;SDS011;21367;51.930;8.112;2023-02-15T22:48:43;54.33;;;20.98;;
35223;SDS011;21367;51.930;8.112;2023-02-15T22:53:50;50.13;;;20.97;;
35223;SDS011;21367;51.930;8.112;2023-02-15T22:58:56;55.80;;;21.13;;
35223;SDS011;21367;51.930;8.112;2023-02-15T23:04:03;60.97;;;22.73;;
35223;SDS011;21367;51.930;8.112;2023-02-15T23:09:10;50.60;;;21.75;;
35223;SDS011;21367;51.930;8.112;2023-02-15T23:14:15;54.95;;;24.17;;
35223;SDS011;21367;51.930;8.112;2023-02-15T23:19:28;59.80;;;23.25;;
35223;SDS011;21367;51.930;8.112;2023-02-15T23:24:35;53.03;;;22.67;;
35223;SDS011;21367;51.930;8.112;2023-02-15T23:29:39;57.83;;;22.73;;
35223;SDS011;21367;51.930;8.112;2023-02-15T23:34:43;55.80;;;22.67;;
35223;SDS011;21367;51.930;8.112;2023-02-15T23:39:50;54.30;;;21.88;;
35223;SDS011;21367;51.930;8.112;2023-02-15T23:45:10;55.92;;;22.67;;
35223;SDS011;21367;51.930;8.112;2023-02-15T23:50:24;49.83;;;21.40;;
35223;SDS011;21367;51.930;8.112;2023-02-15T23:55:33;53.92;;;22.83;;
